Time;durP1;ratioP1;P1;durP2;ratioP2;P2;SDS_P1;SDS_P2;PMS_P1;PMS_P2;Temp;Humidity;BMP_temperature;BMP_pressure;BME280_temperature;BME280_humidity;BME280_pressure;Samples;Min_cycle;Max_cycle;Signal;HPM_P1;HPM_P2
2021/07/07 08:04:16;;;;;;;2.40;2.20;;;17.90;99.90;;;;;;514200;26;21541;-87
2021/07/07 08:06:42;;;;;;;3.50;2.47;;;17.90;99.90;;;;;;4889917;29;20472;-88
2021/07/07 08:09:08;;;;;;;2.67;2.47;;;17.70;99.90;;;;;;4873442;29;21282;-86
2021/07/07 08:11:33;;;;;;;3.83;2.27;;;17.40;99.90;;;;;;4886359;29;20188;-88
2021/07/07 08:13:59;;;;;;;2.03;1.93;;;17.10;99.90;;;;;;4887885;29;20215;-87
2021/07/07 08:16:25;;;;;;;3.10;2.50;;;16.80;99.90;;;;;;4878384;29;20239;-90
2021/07/07 08:18:51;;;;;;;3.70;3.40;;;16.50;99.90;;;;;;4894902;29;20189;-88
2021/07/07 08:21:18;;;;;;;3.47;3.17;;;16.50;99.90;;;;;;4880953;29;20452;-89
2021/07/07 08:23:44;;;;;;;3.00;2.70;;;16.50;99.90;;;;;;4879147;29;20229;-90
2021/07/07 08:26:22;;;;;;;2.87;2.40;;;16.40;99.90;;;;;;4885743;29;20959;-88
2021/07/07 08:28:58;;;;;;;2.87;2.67;;;16.40;99.90;;;;;;4869468;29;20209;-88
2021/07/07 08:31:30;;;;;;;3.10;2.83;;;16.20;99.90;;;;;;4878146;29;20468;-92
2021/07/07 08:33:59;;;;;;;4.07;2.70;;;16.20;99.90;;;;;;4877650;29;20887;-92
2021/07/07 08:46:12;;;;;;;3.23;1.87;;;16.60;99.90;;;;;;4894927;29;20543;-90
2021/07/07 08:48:48;;;;;;;2.90;2.30;;;16.70;99.90;;;;;;4892504;29;20464;-91
2021/07/07 08:51:22;;;;;;;3.50;2.17;;;16.90;99.90;;;;;;4874442;29;20472;-91
2021/07/07 08:54:01;;;;;;;3.90;2.57;;;17.10;99.90;;;;;;4870243;29;20471;-93
2021/07/07 08:56:37;;;;;;;4.60;2.93;;;17.20;99.90;;;;;;4877046;29;20459;-91
2021/07/07 08:59:02;;;;;;;3.33;2.43;;;17.30;99.90;;;;;;4878177;29;20547;-90
2021/07/07 09:01:28;;;;;;;2.73;2.13;;;17.60;99.90;;;;;;4885109;29;20440;-92
2021/07/07 09:04:07;;;;;;;2.73;2.37;;;17.90;99.90;;;;;;4883754;29;21014;-88
2021/07/07 09:06:35;;;;;;;3.40;2.33;;;18.30;99.90;;;;;;4877881;29;20625;-88
2021/07/07 09:09:06;;;;;;;4.07;2.63;;;18.70;99.90;;;;;;4882149;29;20464;-88
2021/07/07 09:14:27;;;;;;;2.03;1.40;;;18.50;99.90;;;;;;4891199;29;20472;-90
2021/07/07 09:18:04;;;;;;;;;;;;;;;;;;;;;
2021/07/07 11:47:02;;;;;;;1.30;1.20;;;20.40;99.90;;;;;;4878344;29;20513;-89
2021/07/07 11:49:32;;;;;;;1.17;1.17;;;20.50;99.90;;;;;;4866448;29;20524;-89
2021/07/07 11:52:31;;;;;;;1.27;1.17;;;20.80;99.90;;;;;;4883170;29;20473;-89
2021/07/07 11:55:39;;;;;;;1.70;1.60;;;21.00;99.90;;;;;;4878624;29;20469;-91
2021/07/07 11:58:31;;;;;;;2.30;1.63;;;21.10;99.90;;;;;;4861664;29;20548;-90
2021/07/07 12:01:09;;;;;;;1.60;1.30;;;21.10;99.90;;;;;;4875087;29;20470;-90
2021/07/07 12:03:37;;;;;;;1.40;1.30;;;21.20;99.90;;;;;;4878040;29;20488;-89
2021/07/07 12:06:07;;;;;;;2.53;1.70;;;20.80;99.90;;;;;;4868190;29;20503;-87
2021/07/07 12:08:39;;;;;;;3.10;1.63;;;20.80;99.90;;;;;;4879428;29;20462;-88
2021/07/07 12:11:17;;;;;;;1.73;1.63;;;20.80;99.90;;;;;;4878081;29;21035;-89
2021/07/07 12:13:48;;;;;;;2.17;1.97;;;20.40;99.90;;;;;;4863857;29;20441;-89
2021/07/07 12:16:29;;;;;;;1.63;1.37;;;20.60;99.90;;;;;;4865249;29;20857;-88
2021/07/07 12:19:04;;;;;;;2.03;1.90;;;20.70;99.90;;;;;;4860897;29;20552;-89
2021/07/07 12:21:50;;;;;;;1.60;1.50;;;20.40;99.90;;;;;;4884377;29;20489;-88
2021/07/07 12:24:19;;;;;;;1.97;1.87;;;20.10;99.90;;;;;;4864810;29;20576;-91
2021/07/07 12:27:10;;;;;;;1.80;1.70;;;20.10;99.90;;;;;;4886228;29;20464;-89
2021/07/07 12:29:41;;;;;;;1.83;1.73;;;20.60;99.90;;;;;;4859427;29;20473;-88
2021/07/07 12:32:27;;;;;;;1.90;1.80;;;20.30;99.90;;;;;;4884698;29;20445;-89
2021/07/07 12:34:58;;;;;;;1.80;1.70;;;20.40;99.90;;;;;;4883239;29;20467;-89
2021/07/07 12:37:24;;;;;;;2.17;1.90;;;20.30;99.90;;;;;;4883129;29;20465;-87
2021/07/07 12:39:58;;;;;;;3.13;1.73;;;20.00;99.90;;;;;;4881495;29;20460;-89
2021/07/07 12:42:33;;;;;;;1.60;1.50;;;19.90;99.90;;;;;;4879673;29;20469;-88
2021/07/07 12:45:04;;;;;;;4.50;1.30;;;20.20;99.90;;;;;;4859826;29;20512;-87
2021/07/07 12:47:29;;;;;;;1.30;1.20;;;21.40;99.90;;;;;;4874506;29;20449;-88
2021/07/07 14:52:13;;;;;;;1.97;1.60;;;23.00;99.90;;;;;;4626034;26;20997;-88
2021/07/07 14:54:52;;;;;;;1.80;1.70;;;23.00;99.90;;;;;;4922591;29;20447;-88
2021/07/07 14:57:18;;;;;;;2.43;1.20;;;23.60;99.90;;;;;;4905417;29;20471;-88
2021/07/07 14:59:46;;;;;;;1.50;1.40;;;23.90;99.90;;;;;;4906166;29;20543;-88
2021/07/07 15:02:13;;;;;;;2.00;1.30;;;23.90;99.90;;;;;;4905859;29;20460;-88
2021/07/07 15:04:40;;;;;;;1.47;1.37;;;24.00;99.90;;;;;;4910355;29;20486;-88
2021/07/07 15:07:07;;;;;;;1.33;1.23;;;24.20;99.90;;;;;;4907479;29;20465;-88
2021/07/07 15:09:33;;;;;;;1.40;1.30;;;24.00;99.90;;;;;;4908027;29;20490;-88
2021/07/07 15:11:59;;;;;;;1.40;1.30;;;23.70;99.90;;;;;;4921376;29;20984;-88
2021/07/07 15:14:27;;;;;;;1.37;1.17;;;23.50;99.90;;;;;;4920886;29;20495;-88
2021/07/07 15:16:54;;;;;;;1.43;1.17;;;23.30;99.90;;;;;;4908184;29;20950;-88
2021/07/07 15:19:21;;;;;;;1.33;1.20;;;23.10;99.90;;;;;;4902349;29;20467;-88
2021/07/07 15:21:52;;;;;;;0.97;0.97;;;23.00;99.90;;;;;;4907904;29;20467;-88
2021/07/07 15:24:19;;;;;;;1.23;1.20;;;22.90;99.90;;;;;;4908205;29;21049;-88
2021/07/07 15:27:03;;;;;;;1.40;1.30;;;22.90;99.90;;;;;;4907205;29;20942;-88
2021/07/07 15:29:51;;;;;;;2.10;1.20;;;22.60;99.90;;;;;;4922964;29;20528;-88
2021/07/07 15:32:17;;;;;;;1.10;1.10;;;22.40;99.90;;;;;;4905621;29;20466;-88
2021/07/07 15:34:43;;;;;;;1.20;1.20;;;22.60;99.90;;;;;;4923570;29;20459;-88
2021/07/07 15:37:10;;;;;;;1.00;1.00;;;22.90;99.90;;;;;;4908456;29;20969;-88
2021/07/07 15:39:37;;;;;;;2.20;1.23;;;23.30;99.90;;;;;;4925039;29;20477;-88
2021/07/07 15:42:04;;;;;;;2.83;1.10;;;23.80;99.90;;;;;;4908675;29;20443;-89
2021/07/07 15:44:32;;;;;;;1.07;1.07;;;27.00;99.90;;;;;;4902992;29;20568;-89
2021/07/07 15:47:07;;;;;;;1.43;1.33;;;31.70;96.60;;;;;;4903851;29;20463;-89
2021/07/07 15:49:34;;;;;;;1.00;0.90;;;34.20;91.80;;;;;;4906326;29;20455;-89
2021/07/07 15:52:03;;;;;;;2.00;1.17;;;36.10;77.90;;;;;;4905086;29;20466;-89
2021/07/07 15:54:32;;;;;;;3.40;1.20;;;36.20;71.30;;;;;;4908035;29;20466;-89
2021/07/07 15:57:01;;;;;;;1.33;1.10;;;36.70;68.60;;;;;;4903289;29;20558;-89
2021/07/07 15:59:29;;;;;;;1.20;1.00;;;34.90;69.40;;;;;;4904980;29;20458;-89
2021/07/07 16:01:56;;;;;;;1.40;1.10;;;31.60;77.50;;;;;;4907865;29;20988;-88
2021/07/07 16:04:22;;;;;;;1.23;0.80;;;32.00;79.10;;;;;;4906934;29;20491;-89
2021/07/07 16:06:48;;;;;;;1.20;1.10;;;32.30;77.70;;;;;;4896330;29;20459;-89
2021/07/07 16:09:22;;;;;;;1.27;1.00;;;33.70;78.30;;;;;;4901358;29;20464;-89
2021/07/07 16:11:56;;;;;;;2.27;0.83;;;34.60;69.90;;;;;;4920871;29;20587;-89
2021/07/07 16:14:22;;;;;;;1.23;1.00;;;32.40;70.40;;;;;;4905112;29;20550;-89
2021/07/07 16:16:51;;;;;;;0.80;0.80;;;31.00;73.80;;;;;;4921930;29;20459;-89
2021/07/07 16:19:19;;;;;;;0.80;0.80;;;33.30;70.80;;;;;;4904564;29;20466;-89
2021/07/07 16:21:46;;;;;;;0.70;0.70;;;35.40;64.40;;;;;;4920266;29;20486;-89
2021/07/07 16:24:14;;;;;;;0.87;0.87;;;35.30;63.80;;;;;;4905767;29;20512;-90
2021/07/07 16:26:46;;;;;;;0.70;0.70;;;35.20;60.00;;;;;;4920419;29;20529;-89
2021/07/07 16:29:13;;;;;;;1.27;0.73;;;35.00;60.30;;;;;;4906133;29;20470;-89
2021/07/07 16:31:39;;;;;;;1.60;0.90;;;36.50;61.90;;;;;;4905332;29;20459;-89
2021/07/07 16:34:05;;;;;;;0.60;0.60;;;34.30;57.70;;;;;;4922137;29;20447;-88
2021/07/07 16:36:35;;;;;;;0.90;0.90;;;32.40;62.60;;;;;;4924109;29;20501;-89
2021/07/07 16:39:02;;;;;;;0.70;0.63;;;29.70;66.10;;;;;;4906660;29;20455;-89
2021/07/07 16:41:29;;;;;;;1.07;0.70;;;31.30;68.90;;;;;;4906608;29;20477;-89
2021/07/07 16:44:13;;;;;;;0.83;0.60;;;34.00;60.00;;;;;;4907199;29;20483;-89
2021/07/07 16:46:40;;;;;;;0.67;0.67;;;36.30;57.00;;;;;;4908152;29;20494;-89
2021/07/07 16:49:07;;;;;;;0.77;0.40;;;36.30;54.70;;;;;;4906737;29;20451;-88
2021/07/07 16:51:34;;;;;;;0.70;0.70;;;36.20;54.50;;;;;;4911516;29;21056;-88
2021/07/07 16:54:01;;;;;;;1.80;0.63;;;35.50;55.80;;;;;;4901931;29;20581;-89
2021/07/07 16:56:27;;;;;;;0.60;0.60;;;36.30;56.60;;;;;;4903206;29;20553;-88
2021/07/07 16:59:04;;;;;;;0.80;0.80;;;37.30;53.90;;;;;;4921510;29;20526;-88
2021/07/07 17:01:33;;;;;;;0.70;0.70;;;37.30;52.60;;;;;;4906248;29;20498;-89
2021/07/07 17:04:03;;;;;;;1.13;0.53;;;37.00;51.30;;;;;;4918509;29;20585;-89
2021/07/07 17:06:29;;;;;;;1.27;0.70;;;36.70;53.10;;;;;;4905907;29;20581;-89
2021/07/07 17:08:55;;;;;;;1.80;0.50;;;36.70;52.10;;;;;;4909193;29;20443;-89
2021/07/07 17:11:21;;;;;;;0.80;0.80;;;36.90;50.40;;;;;;4908170;29;20203;-89
2021/07/07 17:13:48;;;;;;;0.60;0.60;;;35.80;51.50;;;;;;4907132;29;20203;-89
2021/07/07 17:16:28;;;;;;;1.17;0.60;;;36.40;52.00;;;;;;4907954;29;20194;-89
2021/07/07 17:18:55;;;;;;;0.70;0.70;;;37.20;49.60;;;;;;4905936;29;20194;-89
2021/07/07 17:21:21;;;;;;;0.80;0.60;;;38.20;47.00;;;;;;4908047;29;20677;-89
2021/07/07 17:23:51;;;;;;;0.53;0.53;;;38.30;46.50;;;;;;4922293;29;20206;-89
2021/07/07 17:26:17;;;;;;;0.70;0.57;;;37.00;47.30;;;;;;4906555;29;20232;-89
2021/07/07 17:28:45;;;;;;;1.43;0.57;;;37.30;48.10;;;;;;4905398;29;20188;-89
2021/07/07 17:31:12;;;;;;;1.07;0.70;;;35.30;52.00;;;;;;4907149;29;20467;-88
2021/07/07 17:33:44;;;;;;;0.80;0.80;;;34.50;53.90;;;;;;4924324;29;20447;-90
2021/07/07 17:36:10;;;;;;;1.43;0.60;;;33.90;53.70;;;;;;4910873;29;20451;-89
2021/07/07 17:38:38;;;;;;;1.93;0.93;;;33.80;54.90;;;;;;4908714;29;20450;-88
2021/07/07 17:41:04;;;;;;;0.80;0.60;;;32.00;56.80;;;;;;4900252;29;20462;-89
2021/07/07 17:43:31;;;;;;;0.60;0.60;;;30.70;62.00;;;;;;4907269;29;20454;-89
2021/07/07 17:45:58;;;;;;;0.80;0.60;;;31.80;58.30;;;;;;4907634;29;20487;-89
2021/07/07 17:48:24;;;;;;;0.57;0.57;;;33.10;55.60;;;;;;4909202;29;20463;-89
2021/07/07 17:50:51;;;;;;;0.70;0.70;;;33.10;57.50;;;;;;4923984;29;20474;-89
2021/07/07 17:53:17;;;;;;;0.60;0.60;;;32.90;57.80;;;;;;4908364;29;21032;-88
2021/07/07 17:55:50;;;;;;;2.83;0.63;;;32.70;58.90;;;;;;4906194;29;20538;-89
2021/07/07 17:58:17;;;;;;;3.43;1.27;;;32.60;59.10;;;;;;4904045;29;20458;-89
2021/07/07 18:00:44;;;;;;;1.10;0.70;;;33.20;58.00;;;;;;4909032;29;20993;-89
2021/07/07 18:03:10;;;;;;;0.60;0.60;;;32.70;60.00;;;;;;4906100;29;20467;-89
2021/07/07 18:05:36;;;;;;;0.77;0.70;;;32.20;61.60;;;;;;4904605;29;20542;-89
2021/07/07 18:08:05;;;;;;;0.77;0.53;;;31.50;65.80;;;;;;4909947;29;21170;-90
2021/07/07 18:10:32;;;;;;;0.50;0.50;;;31.00;66.60;;;;;;4901678;29;20475;-90
2021/07/07 18:12:58;;;;;;;0.77;0.60;;;31.10;66.40;;;;;;4903962;29;20564;-90
2021/07/07 18:15:24;;;;;;;0.80;0.80;;;31.00;65.30;;;;;;4907880;29;20551;-90
2021/07/07 18:17:50;;;;;;;1.53;0.60;;;29.70;68.40;;;;;;4907640;29;20299;-90
2021/07/07 18:20:17;;;;;;;0.80;0.70;;;29.00;69.60;;;;;;4908024;29;20231;-89
2021/07/07 18:22:46;;;;;;;0.93;0.60;;;27.90;73.60;;;;;;4912457;29;20503;-89
2021/07/07 18:25:16;;;;;;;1.07;0.70;;;27.60;75.40;;;;;;4913820;29;20494;-89
2021/07/07 18:27:44;;;;;;;0.60;0.50;;;27.70;76.40;;;;;;4909088;29;20941;-89
2021/07/07 18:30:11;;;;;;;1.80;0.60;;;27.60;74.40;;;;;;4909948;29;20526;-89
2021/07/07 18:32:41;;;;;;;0.43;0.40;;;27.30;76.10;;;;;;4926345;29;20494;-89
2021/07/07 18:35:10;;;;;;;1.20;0.60;;;27.10;78.40;;;;;;4911829;29;20470;-89
2021/07/07 18:37:37;;;;;;;0.83;0.60;;;26.90;79.70;;;;;;4910148;29;20811;-89
2021/07/07 18:40:05;;;;;;;0.60;0.60;;;26.70;83.40;;;;;;4909946;29;20589;-89
2021/07/07 18:42:34;;;;;;;2.63;0.90;;;26.60;84.30;;;;;;4912097;29;20447;-89
2021/07/07 18:45:02;;;;;;;0.57;0.57;;;26.00;85.50;;;;;;4913995;29;20837;-90
2021/07/07 18:47:32;;;;;;;1.00;0.90;;;24.60;87.30;;;;;;4926786;29;20462;-90
2021/07/07 18:49:59;;;;;;;1.17;0.67;;;23.00;91.10;;;;;;4912677;29;20443;-90
2021/07/07 18:52:25;;;;;;;1.10;0.60;;;22.00;94.50;;;;;;4929318;29;20451;-90
2021/07/07 18:54:52;;;;;;;1.70;0.73;;;21.20;97.30;;;;;;4918341;29;20450;-89
2021/07/07 18:57:19;;;;;;;0.50;0.50;;;20.80;99.90;;;;;;4905873;29;20475;-90
2021/07/07 18:59:46;;;;;;;0.70;0.70;;;20.40;99.90;;;;;;4910142;29;20538;-91
2021/07/07 19:02:12;;;;;;;0.70;0.70;;;20.10;99.90;;;;;;4908801;29;20443;-90
2021/07/07 19:04:38;;;;;;;0.60;0.60;;;19.90;99.90;;;;;;4909466;29;20595;-90
2021/07/07 19:07:05;;;;;;;1.27;0.70;;;19.80;99.90;;;;;;4925944;29;20439;-89
2021/07/07 19:09:35;;;;;;;1.10;0.60;;;19.80;99.90;;;;;;4912855;29;20478;-90
2021/07/07 19:12:02;;;;;;;0.70;0.70;;;19.70;99.90;;;;;;4908008;29;20454;-89
2021/07/07 19:14:29;;;;;;;1.00;0.60;;;19.70;99.90;;;;;;4903224;29;20561;-90
2021/07/07 19:16:55;;;;;;;0.70;0.70;;;19.60;99.90;;;;;;4909461;29;20973;-90
2021/07/07 19:19:22;;;;;;;1.43;0.83;;;19.60;99.90;;;;;;4910453;29;20542;-89
2021/07/07 19:21:48;;;;;;;1.13;0.83;;;19.50;99.90;;;;;;4908569;29;20463;-89
2021/07/07 19:24:15;;;;;;;2.13;1.30;;;19.50;99.90;;;;;;4927036;29;20553;-89
2021/07/07 19:26:42;;;;;;;1.60;1.00;;;19.30;99.90;;;;;;4911266;29;20958;-90
2021/07/07 19:29:08;;;;;;;4.17;1.27;;;19.20;99.90;;;;;;4923170;29;21001;-90
2021/07/07 19:31:35;;;;;;;1.43;0.83;;;19.00;99.90;;;;;;4908843;29;20452;-89
2021/07/07 19:34:02;;;;;;;3.40;0.90;;;18.90;99.90;;;;;;4926736;29;20467;-89
2021/07/07 19:36:31;;;;;;;3.07;0.93;;;18.80;99.90;;;;;;4907149;29;20542;-90
2021/07/07 19:39:12;;;;;;;1.17;1.10;;;18.80;99.90;;;;;;4901767;29;20822;-89
2021/07/07 19:41:52;;;;;;;1.00;0.80;;;18.70;99.90;;;;;;4923639;29;20463;-90
2021/07/07 19:44:18;;;;;;;1.83;1.73;;;18.70;99.90;;;;;;4909653;29;20886;-90
2021/07/07 19:46:47;;;;;;;3.43;1.07;;;18.60;99.90;;;;;;4908488;29;20455;-89
2021/07/07 19:49:13;;;;;;;2.10;1.30;;;18.70;99.90;;;;;;4907529;29;21032;-90
2021/07/07 19:51:40;;;;;;;2.90;1.13;;;18.80;99.90;;;;;;4922577;29;20544;-89
2021/07/07 19:54:07;;;;;;;2.20;1.23;;;18.80;99.90;;;;;;4909053;29;20194;-90
2021/07/07 19:56:34;;;;;;;1.87;1.30;;;18.90;99.90;;;;;;4893204;29;20574;-90
2021/07/07 19:59:11;;;;;;;1.73;1.60;;;18.90;99.90;;;;;;4908226;29;20515;-90
2021/07/07 20:01:37;;;;;;;1.60;1.40;;;18.90;99.90;;;;;;4925156;29;20435;-90
2021/07/07 20:04:03;;;;;;;1.53;1.40;;;18.90;99.90;;;;;;4907745;29;20534;-90
2021/07/07 20:06:29;;;;;;;1.80;1.70;;;18.90;99.90;;;;;;4925164;29;20451;-89
2021/07/07 20:08:55;;;;;;;2.20;1.87;;;18.90;99.90;;;;;;4905799;29;20440;-89
2021/07/07 20:11:21;;;;;;;2.53;1.67;;;18.80;99.90;;;;;;4910363;29;20646;-89
2021/07/07 20:13:47;;;;;;;2.10;2.00;;;18.80;99.90;;;;;;4925841;29;20207;-89
2021/07/07 20:16:13;;;;;;;2.23;1.80;;;18.80;99.90;;;;;;4922005;29;20638;-89
2021/07/07 20:18:38;;;;;;;2.00;1.70;;;18.80;99.90;;;;;;4919772;29;20503;-89
2021/07/07 20:21:05;;;;;;;2.00;1.90;;;18.80;99.90;;;;;;4907807;29;20291;-89
2021/07/07 20:23:32;;;;;;;1.77;1.67;;;18.80;99.90;;;;;;4906730;29;20259;-89
2021/07/07 20:25:59;;;;;;;2.07;1.97;;;18.80;99.90;;;;;;4908651;29;20491;-89
2021/07/07 20:28:25;;;;;;;2.23;2.13;;;18.80;99.90;;;;;;4924827;29;20440;-89
2021/07/07 20:30:52;;;;;;;2.03;1.93;;;18.80;99.90;;;;;;4924616;29;20463;-89
2021/07/07 20:33:20;;;;;;;3.20;1.60;;;18.70;99.90;;;;;;4906783;29;20199;-88
2021/07/07 20:35:45;;;;;;;4.30;2.07;;;18.60;99.90;;;;;;4908066;29;20467;-90
2021/07/07 20:38:12;;;;;;;2.50;1.90;;;18.60;99.90;;;;;;4901071;29;20456;-90
2021/07/07 20:40:39;;;;;;;2.40;2.20;;;18.50;99.90;;;;;;4922846;29;20755;-89
2021/07/07 20:43:08;;;;;;;1.70;1.60;;;18.50;99.90;;;;;;4913160;29;20459;-90
2021/07/07 20:45:36;;;;;;;1.90;1.80;;;18.50;99.90;;;;;;4924656;29;20495;-89
2021/07/07 20:48:03;;;;;;;2.37;2.13;;;18.50;99.90;;;;;;4920964;29;20459;-90
2021/07/07 20:50:30;;;;;;;5.67;2.20;;;18.50;99.90;;;;;;4910530;29;20499;-88
2021/07/07 20:52:57;;;;;;;3.70;2.27;;;18.50;99.90;;;;;;4907292;29;20463;-87
2021/07/07 20:55:24;;;;;;;1.80;1.70;;;18.70;99.90;;;;;;4907085;29;20466;-90
2021/07/07 20:57:59;;;;;;;2.53;2.17;;;18.70;99.90;;;;;;4907922;29;20478;-89
2021/07/07 21:00:27;;;;;;;1.93;1.83;;;18.70;99.90;;;;;;4906018;29;20455;-90
2021/07/07 21:02:54;;;;;;;2.00;1.90;;;18.60;99.90;;;;;;4907097;29;20479;-90
2021/07/07 21:05:22;;;;;;;2.10;1.70;;;18.50;99.90;;;;;;4901663;29;20527;-90
2021/07/07 21:07:49;;;;;;;2.47;2.27;;;18.50;99.90;;;;;;4924947;29;20474;-90
2021/07/07 21:10:17;;;;;;;3.20;2.10;;;18.40;99.90;;;;;;4907279;29;20463;-90
2021/07/07 21:12:44;;;;;;;2.67;2.03;;;18.40;99.90;;;;;;4905986;29;20699;-91
2021/07/07 21:15:12;;;;;;;1.97;1.87;;;18.30;99.90;;;;;;4906643;29;20447;-90
2021/07/07 21:17:39;;;;;;;2.43;1.77;;;18.30;99.90;;;;;;4907972;29;21040;-89
2021/07/07 21:20:09;;;;;;;1.93;1.83;;;18.20;99.90;;;;;;4908950;29;20467;-90
2021/07/07 21:22:37;;;;;;;2.40;2.20;;;18.20;99.90;;;;;;4908905;29;20474;-90
2021/07/07 21:25:04;;;;;;;2.27;2.10;;;18.10;99.90;;;;;;4908353;29;20499;-88
2021/07/07 21:27:34;;;;;;;3.53;2.40;;;18.10;99.90;;;;;;4925397;29;20439;-90
2021/07/07 21:30:00;;;;;;;2.63;2.10;;;18.00;99.90;;;;;;4908858;29;20482;-88
2021/07/07 21:32:26;;;;;;;4.90;2.23;;;18.00;99.90;;;;;;4909258;29;20808;-89
2021/07/07 21:34:52;;;;;;;2.47;1.90;;;17.90;99.90;;;;;;4924411;29;20211;-88
2021/07/07 21:37:18;;;;;;;2.00;1.80;;;17.90;99.90;;;;;;4905982;29;20446;-89
2021/07/07 21:39:44;;;;;;;6.77;2.53;;;17.80;99.90;;;;;;4909164;29;20961;-88
2021/07/07 21:42:10;;;;;;;2.67;2.00;;;17.80;99.90;;;;;;4910474;29;20218;-89
2021/07/07 21:44:35;;;;;;;2.40;2.20;;;17.80;99.90;;;;;;4907453;29;20239;-89
2021/07/07 21:47:02;;;;;;;3.10;2.30;;;17.80;99.90;;;;;;4905537;29;20195;-89
2021/07/07 21:49:28;;;;;;;2.00;1.87;;;17.90;99.90;;;;;;4909145;29;20275;-89
2021/07/07 21:51:54;;;;;;;2.60;2.40;;;17.80;99.90;;;;;;4908686;29;20538;-89
2021/07/07 21:54:20;;;;;;;4.73;2.70;;;17.80;99.90;;;;;;4908316;29;20535;-88
2021/07/07 21:56:46;;;;;;;2.43;2.27;;;17.80;99.90;;;;;;4907522;29;20196;-90
2021/07/07 21:59:15;;;;;;;3.20;2.30;;;17.90;99.90;;;;;;4905646;29;20798;-89
2021/07/07 22:01:42;;;;;;;2.40;2.20;;;17.70;99.90;;;;;;4906488;29;20183;-90
2021/07/07 22:04:09;;;;;;;2.37;2.10;;;17.60;99.90;;;;;;4908561;29;20496;-89
2021/07/07 22:06:36;;;;;;;3.50;2.27;;;17.60;99.90;;;;;;4907449;29;20439;-88
2021/07/07 22:09:03;;;;;;;2.70;2.50;;;17.50;99.90;;;;;;4908958;29;20470;-88
2021/07/07 22:11:30;;;;;;;2.67;2.47;;;17.50;99.90;;;;;;4906362;29;20466;-88
2021/07/07 22:13:57;;;;;;;3.40;3.10;;;17.40;99.90;;;;;;4909371;29;20499;-89
2021/07/07 22:16:23;;;;;;;2.80;2.60;;;17.40;99.90;;;;;;4904326;29;20478;-89
2021/07/07 22:18:49;;;;;;;2.53;2.33;;;17.40;99.90;;;;;;4906007;29;20451;-88
2021/07/07 22:21:17;;;;;;;3.07;2.80;;;17.30;99.90;;;;;;4921662;29;20207;-88
2021/07/07 22:23:44;;;;;;;2.57;2.37;;;17.40;99.90;;;;;;4908025;29;20452;-88
2021/07/07 22:26:18;;;;;;;4.70;2.70;;;17.40;99.90;;;;;;4909044;29;20497;-89
2021/07/07 22:28:45;;;;;;;3.47;2.53;;;17.50;99.90;;;;;;4907173;29;20807;-89
2021/07/07 22:31:11;;;;;;;3.07;2.43;;;17.50;99.90;;;;;;4905670;29;20483;-88
2021/07/07 22:33:39;;;;;;;1.93;1.80;;;17.50;99.90;;;;;;4900105;29;20474;-90
2021/07/07 22:36:11;;;;;;;3.40;2.17;;;17.40;99.90;;;;;;4922026;29;20459;-90
2021/07/07 22:38:37;;;;;;;5.20;2.50;;;17.30;99.90;;;;;;4923269;29;20451;-89
2021/07/07 22:41:07;;;;;;;2.90;2.60;;;17.10;99.90;;;;;;4904474;29;20478;-89
2021/07/07 22:43:36;;;;;;;3.00;2.60;;;17.10;99.90;;;;;;4907575;29;20454;-89
2021/07/07 22:46:04;;;;;;;5.70;2.70;;;17.20;99.90;;;;;;4906277;29;20487;-89
2021/07/07 22:48:31;;;;;;;4.10;2.30;;;17.20;99.90;;;;;;4907279;29;20550;-88
2021/07/07 22:51:10;;;;;;;5.30;2.80;;;17.10;99.90;;;;;;4905083;29;20458;-89
2021/07/07 22:53:37;;;;;;;5.30;2.20;;;17.00;99.90;;;;;;4904687;29;20557;-89
2021/07/07 22:56:04;;;;;;;8.47;2.87;;;17.10;99.90;;;;;;4908417;29;20507;-89
2021/07/07 22:58:31;;;;;;;2.63;2.43;;;17.00;99.90;;;;;;4905922;29;21640;-89
2021/07/07 23:00:58;;;;;;;7.27;2.57;;;17.00;99.90;;;;;;4906141;29;20455;-89
2021/07/07 23:03:24;;;;;;;3.10;2.90;;;17.10;99.90;;;;;;4905145;29;21007;-89
2021/07/07 23:05:51;;;;;;;5.53;3.93;;;17.00;99.90;;;;;;4908528;29;20546;-89
2021/07/07 23:08:21;;;;;;;3.47;2.63;;;17.00;99.90;;;;;;4898538;29;20807;-89
2021/07/07 23:10:54;;;;;;;2.17;2.07;;;17.00;99.90;;;;;;4910808;29;20796;-89
2021/07/07 23:13:21;;;;;;;2.53;2.07;;;17.00;99.90;;;;;;4911866;29;22043;-89
2021/07/07 23:15:48;;;;;;;2.47;2.27;;;17.00;99.90;;;;;;4905087;29;20867;-89
2021/07/07 23:18:34;;;;;;;3.10;2.77;;;17.10;99.90;;;;;;4913250;29;20481;-89
2021/07/07 23:21:04;;;;;;;2.37;2.17;;;17.10;99.90;;;;;;4909843;29;20451;-89
2021/07/07 23:23:30;;;;;;;5.90;2.77;;;17.20;99.90;;;;;;4924993;29;20474;-90
2021/07/07 23:25:57;;;;;;;5.23;2.77;;;17.20;99.90;;;;;;4905979;29;20487;-89
2021/07/07 23:28:31;;;;;;;2.70;2.40;;;17.10;99.90;;;;;;4910432;29;20949;-89
2021/07/07 23:30:57;;;;;;;3.83;2.83;;;17.10;99.90;;;;;;4911325;29;20969;-89
2021/07/07 23:33:23;;;;;;;4.17;2.77;;;17.00;99.90;;;;;;4925324;29;20520;-89
2021/07/07 23:35:52;;;;;;;5.87;2.80;;;17.00;99.90;;;;;;4912322;29;20187;-89
2021/07/07 23:38:19;;;;;;;2.83;2.63;;;17.00;99.90;;;;;;4911031;29;20459;-89
2021/07/07 23:40:47;;;;;;;6.20;3.07;;;16.90;99.90;;;;;;4910414;29;20467;-89
2021/07/07 23:43:13;;;;;;;2.63;2.43;;;16.90;99.90;;;;;;4908517;29;20538;-90
2021/07/07 23:45:40;;;;;;;3.43;2.83;;;17.00;99.90;;;;;;4909008;29;20661;-89
2021/07/07 23:48:07;;;;;;;3.27;2.97;;;17.00;99.90;;;;;;4910573;29;20459;-89
2021/07/07 23:50:35;;;;;;;4.00;2.60;;;17.00;99.90;;;;;;4911735;29;20538;-89
2021/07/07 23:53:06;;;;;;;2.60;2.40;;;17.00;99.90;;;;;;4908235;29;20467;-89
2021/07/07 23:55:33;;;;;;;2.50;2.30;;;17.00;99.90;;;;;;4908594;29;20458;-89
2021/07/07 23:58:03;;;;;;;7.50;2.73;;;16.90;99.90;;;;;;4926013;29;20466;-89
